createdAt,value
2024-01-20T00:00:17.969Z,53.27
2024-01-20T00:02:47.592Z,54.43
2024-01-20T00:05:14.602Z,56.77
2024-01-20T00:07:44.114Z,50.60
2024-01-20T00:10:13.234Z,55.27
2024-01-20T00:12:41.710Z,56.10
2024-01-20T00:15:10.164Z,46.57
2024-01-20T00:17:38.888Z,58.00
2024-01-20T00:20:06.681Z,59.73
2024-01-20T00:22:33.728Z,51.13
2024-01-20T00:25:05.821Z,43.47
2024-01-20T00:27:32.821Z,62.77
2024-01-20T00:30:01.394Z,57.07
2024-01-20T00:32:29.259Z,46.80
2024-01-20T00:35:05.536Z,57.47
2024-01-20T00:37:39.291Z,55.03
2024-01-20T00:40:07.709Z,62.17
2024-01-20T00:42:34.699Z,52.90
2024-01-20T00:45:01.585Z,46.70
2024-01-20T00:47:31.646Z,51.73
2024-01-20T00:49:59.798Z,61.93
2024-01-20T00:52:26.814Z,56.03
2024-01-20T00:54:53.649Z,59.00
2024-01-20T00:57:20.427Z,52.60
2024-01-20T00:59:47.282Z,42.10
2024-01-20T01:02:16.760Z,51.53
2024-01-20T01:04:44.201Z,47.50
2024-01-20T01:07:11.248Z,48.03
2024-01-20T01:09:41.166Z,51.40
2024-01-20T01:12:08.093Z,43.37
2024-01-20T01:14:35.016Z,47.63
2024-01-20T01:17:01.812Z,51.13
2024-01-20T01:19:28.616Z,43.50
2024-01-20T01:21:55.343Z,47.30
2024-01-20T01:24:22.251Z,44.57
2024-01-20T01:26:49.191Z,43.97
2024-01-20T01:29:15.972Z,44.10
2024-01-20T01:31:44.963Z,45.90
2024-01-20T01:34:14.708Z,48.93
2024-01-20T01:36:41.508Z,39.07
2024-01-20T01:39:08.213Z,47.63
2024-01-20T01:41:35.293Z,50.80
2024-01-20T01:44:02.895Z,52.17
2024-01-20T01:46:31.333Z,46.00
2024-01-20T01:48:58.513Z,50.00
2024-01-20T01:51:25.348Z,52.87
2024-01-20T01:53:52.253Z,42.83
2024-01-20T01:56:21.027Z,40.40
2024-01-20T01:58:48.212Z,47.10
2024-01-20T02:01:15.153Z,43.30
2024-01-20T02:03:42.243Z,42.77
2024-01-20T02:06:09.936Z,48.90
2024-01-20T02:08:37.140Z,50.33
2024-01-20T02:11:04.058Z,45.90
2024-01-20T02:13:31.654Z,46.73
2024-01-20T02:15:58.517Z,47.70
2024-01-20T02:18:25.509Z,42.43
2024-01-20T02:20:52.424Z,51.77
2024-01-20T02:23:19.183Z,43.10
2024-01-20T02:25:47.293Z,38.73
2024-01-20T02:28:15.082Z,39.47
2024-01-20T02:30:42.722Z,39.07
2024-01-20T02:33:10.037Z,42.63
2024-01-20T02:35:36.834Z,47.27
2024-01-20T02:38:03.729Z,45.30
2024-01-20T02:40:30.427Z,46.17
2024-01-20T02:42:57.831Z,46.00
2024-01-20T02:45:27.569Z,45.40
2024-01-20T02:47:55.701Z,40.83
2024-01-20T02:50:22.840Z,38.60
2024-01-20T02:52:49.611Z,44.93
2024-01-20T02:55:16.338Z,42.87
2024-01-20T02:57:43.156Z,40.23
2024-01-20T03:00:10.614Z,37.57
2024-01-20T03:02:37.317Z,39.83
2024-01-20T03:05:04.366Z,45.27
2024-01-20T03:07:31.221Z,41.97
2024-01-20T03:09:57.958Z,43.37
2024-01-20T03:12:24.930Z,43.33
2024-01-20T03:14:51.822Z,36.77
2024-01-20T03:17:18.563Z,41.33
2024-01-20T03:19:45.446Z,48.70
2024-01-20T03:22:12.319Z,42.67
2024-01-20T03:24:39.230Z,40.10
2024-01-20T03:27:05.978Z,42.27
2024-01-20T03:29:32.789Z,43.70
2024-01-20T03:31:59.559Z,42.13
2024-01-20T03:34:26.403Z,43.93
2024-01-20T03:36:53.349Z,36.00
2024-01-20T03:39:20.131Z,42.40
2024-01-20T03:41:46.840Z,41.03
2024-01-20T03:44:13.712Z,45.13
2024-01-20T03:46:42.338Z,42.37
2024-01-20T03:49:09.263Z,48.13
2024-01-20T03:51:35.996Z,43.73
2024-01-20T03:54:05.345Z,44.23
2024-01-20T03:56:32.344Z,36.30
2024-01-20T03:58:59.958Z,41.97
2024-01-20T04:01:26.625Z,39.47
2024-01-20T04:03:53.548Z,47.07
2024-01-20T04:06:20.321Z,43.53
2024-01-20T04:08:47.078Z,44.27
2024-01-20T04:11:13.807Z,41.57
2024-01-20T04:13:40.538Z,46.80
2024-01-20T04:16:07.255Z,37.73
2024-01-20T04:18:34.338Z,49.27
2024-01-20T04:21:02.767Z,41.67
2024-01-20T04:23:29.547Z,45.97
2024-01-20T04:25:56.390Z,37.97
2024-01-20T04:28:23.157Z,37.33
2024-01-20T04:30:51.177Z,38.20
2024-01-20T04:33:18.118Z,37.13
2024-01-20T04:35:44.883Z,44.13
2024-01-20T04:38:11.852Z,40.47
2024-01-20T04:40:41.636Z,35.63
2024-01-20T04:43:10.577Z,36.23
2024-01-20T04:45:40.428Z,37.87
2024-01-20T04:48:10.249Z,37.83
2024-01-20T04:50:36.992Z,37.23
2024-01-20T04:53:03.837Z,37.23
2024-01-20T04:55:30.574Z,42.97
2024-01-20T04:58:00.494Z,37.53
2024-01-20T05:00:27.358Z,37.87
2024-01-20T05:02:54.113Z,40.40
2024-01-20T05:05:20.781Z,33.53
2024-01-20T05:07:47.447Z,30.73
2024-01-20T05:10:14.626Z,34.87
2024-01-20T05:12:44.112Z,38.73
2024-01-20T05:15:13.026Z,33.70
2024-01-20T05:17:40.326Z,32.17
2024-01-20T05:20:07.688Z,41.43
2024-01-20T05:22:34.449Z,33.70
2024-01-20T05:25:03.720Z,31.63
2024-01-20T05:27:30.700Z,35.53
2024-01-20T05:29:57.437Z,30.00
2024-01-20T05:32:24.252Z,28.83
2024-01-20T05:34:53.768Z,34.83
2024-01-20T05:37:20.488Z,30.63
2024-01-20T05:39:47.174Z,35.03
2024-01-20T05:42:13.997Z,32.77
2024-01-20T05:44:41.083Z,35.53
2024-01-20T05:47:07.817Z,33.63
2024-01-20T05:49:34.657Z,30.20
2024-01-20T05:52:01.441Z,28.97
2024-01-20T05:54:30.428Z,34.40
2024-01-20T05:57:00.028Z,31.50
2024-01-20T05:59:26.687Z,32.63
2024-01-20T06:01:53.542Z,29.60
2024-01-20T06:04:20.973Z,33.43
2024-01-20T06:06:47.888Z,38.90
2024-01-20T06:09:17.606Z,42.20
2024-01-20T06:11:44.488Z,32.20
2024-01-20T06:14:11.219Z,33.37
2024-01-20T06:16:40.245Z,31.77
2024-01-20T06:19:07.504Z,31.87
2024-01-20T06:21:34.330Z,31.83
2024-01-20T06:24:01.104Z,30.57
2024-01-20T06:26:27.833Z,32.60
2024-01-20T06:28:54.558Z,37.33
2024-01-20T06:31:27.749Z,33.87
2024-01-20T06:33:55.748Z,29.07
2024-01-20T06:36:23.222Z,37.50
2024-01-20T06:38:50.002Z,30.17
2024-01-20T06:41:17.025Z,33.43
2024-01-20T06:43:44.158Z,33.40
2024-01-20T06:46:10.950Z,26.70
2024-01-20T06:48:37.799Z,36.90
2024-01-20T06:51:05.134Z,40.50
2024-01-20T06:53:32.898Z,34.87
2024-01-20T06:56:01.832Z,37.00
2024-01-20T06:58:28.525Z,38.10
2024-01-20T07:00:55.303Z,36.80
2024-01-20T07:03:22.977Z,28.90
2024-01-20T07:05:50.052Z,30.57
2024-01-20T07:08:16.824Z,32.43
2024-01-20T07:10:43.750Z,32.20
2024-01-20T07:13:10.502Z,30.77
2024-01-20T07:15:37.210Z,31.70
2024-01-20T07:18:05.589Z,41.93
2024-01-20T07:20:32.351Z,36.87
2024-01-20T07:22:59.433Z,30.07
2024-01-20T07:25:26.250Z,35.07
2024-01-20T07:27:52.918Z,29.93
2024-01-20T07:30:19.826Z,28.93
2024-01-20T07:32:46.525Z,29.80
2024-01-20T07:35:13.355Z,31.17
2024-01-20T07:37:40.470Z,32.87
2024-01-20T07:40:07.825Z,26.50
2024-01-20T07:42:35.708Z,31.70
2024-01-20T07:45:03.866Z,37.23
2024-01-20T07:47:30.736Z,31.07
2024-01-20T07:49:57.453Z,30.70
2024-01-20T07:52:24.296Z,30.60
2024-01-20T07:54:51.022Z,37.47
2024-01-20T07:57:17.810Z,33.53
2024-01-20T07:59:47.402Z,29.13
2024-01-20T08:02:15.582Z,36.10
2024-01-20T08:04:42.345Z,32.80
2024-01-20T08:07:10.350Z,27.60
2024-01-20T08:09:37.318Z,41.13
2024-01-20T08:12:04.882Z,33.50
2024-01-20T08:14:31.764Z,34.67
2024-01-20T08:16:58.563Z,30.20
2024-01-20T08:19:25.350Z,37.17
2024-01-20T08:21:52.071Z,37.50
2024-01-20T08:24:18.869Z,35.23
2024-01-20T08:26:46.716Z,33.37
2024-01-20T08:29:13.767Z,40.27
2024-01-20T08:31:40.477Z,37.30
2024-01-20T08:34:07.266Z,37.17
2024-01-20T08:36:34.153Z,38.07
2024-01-20T08:39:03.805Z,42.37
2024-01-20T08:41:30.962Z,34.27
2024-01-20T08:43:57.833Z,34.40
2024-01-20T08:46:26.342Z,42.70
2024-01-20T08:48:53.410Z,34.43
2024-01-20T08:51:20.568Z,42.97
2024-01-20T08:53:47.429Z,38.57
2024-01-20T08:56:14.535Z,34.50
2024-01-20T08:58:41.306Z,37.60
2024-01-20T09:01:08.593Z,33.73
2024-01-20T09:03:35.474Z,37.37
2024-01-20T09:06:02.800Z,32.97
2024-01-20T09:08:29.603Z,38.70
2024-01-20T09:10:57.573Z,37.27
2024-01-20T09:13:24.352Z,30.77
2024-01-20T09:15:51.323Z,36.63
2024-01-20T09:18:19.036Z,38.67
2024-01-20T09:20:47.082Z,32.77
2024-01-20T09:23:14.253Z,39.77
2024-01-20T09:25:40.974Z,33.43
2024-01-20T09:28:07.905Z,33.47
2024-01-20T09:30:36.814Z,32.13
2024-01-20T09:33:05.934Z,35.23
2024-01-20T09:35:32.854Z,38.33
2024-01-20T09:37:59.673Z,35.80
2024-01-20T09:40:26.601Z,29.90
2024-01-20T09:42:53.525Z,32.07
2024-01-20T09:45:20.780Z,33.70
2024-01-20T09:47:47.712Z,32.80
2024-01-20T09:50:14.725Z,36.07
2024-01-20T09:52:53.478Z,37.10
2024-01-20T09:55:22.863Z,32.97
2024-01-20T09:57:51.399Z,32.53
2024-01-20T10:00:21.010Z,32.37
2024-01-20T10:02:48.125Z,32.73
2024-01-20T10:05:18.026Z,30.57
2024-01-20T10:07:47.637Z,36.73
2024-01-20T10:10:21.841Z,30.83
2024-01-20T10:12:52.557Z,30.73
2024-01-20T10:15:30.791Z,37.73
2024-01-20T10:18:00.651Z,33.00
2024-01-20T10:20:34.972Z,34.13
2024-01-20T10:23:03.424Z,36.47
2024-01-20T10:25:30.671Z,34.60
2024-01-20T10:27:57.392Z,35.20
2024-01-20T10:30:27.341Z,33.87
2024-01-20T10:33:04.391Z,29.83
2024-01-20T10:35:39.664Z,42.37
2024-01-20T10:38:12.056Z,40.97
2024-01-20T10:40:42.426Z,32.10
2024-01-20T10:43:15.787Z,34.83
2024-01-20T10:45:54.124Z,28.37
2024-01-20T10:48:27.290Z,30.03
2024-01-20T10:50:58.645Z,29.83
2024-01-20T10:53:27.362Z,35.40
2024-01-20T10:55:54.856Z,34.23
2024-01-20T10:58:26.340Z,31.77
2024-01-20T11:00:53.994Z,33.93
2024-01-20T11:03:21.743Z,30.43
2024-01-20T11:05:49.767Z,28.07
2024-01-20T11:08:25.395Z,36.73
2024-01-20T11:10:54.518Z,30.13
2024-01-20T11:13:26.079Z,32.17
2024-01-20T11:15:53.170Z,31.30
2024-01-20T11:18:21.439Z,30.47
2024-01-20T11:21:03.368Z,34.17
2024-01-20T11:23:30.659Z,30.10
2024-01-20T11:26:09.954Z,37.27
2024-01-20T11:28:36.877Z,26.83
2024-01-20T11:31:06.721Z,30.63
2024-01-20T11:33:33.751Z,32.03
2024-01-20T11:36:04.217Z,30.60
2024-01-20T11:38:35.734Z,24.37
2024-01-20T11:41:03.138Z,28.00
2024-01-20T11:43:30.599Z,29.23
2024-01-20T11:45:58.083Z,28.27
2024-01-20T11:48:26.027Z,34.60
2024-01-20T11:50:53.425Z,32.30
2024-01-20T11:53:21.864Z,31.17
2024-01-20T11:56:00.678Z,27.03
2024-01-20T11:58:28.645Z,24.20
2024-01-20T12:00:56.577Z,25.17
2024-01-20T12:03:24.246Z,31.10
2024-01-20T12:05:52.769Z,28.53
2024-01-20T12:08:20.657Z,33.57
2024-01-20T12:10:47.804Z,28.73
2024-01-20T12:13:17.476Z,25.07
2024-01-20T12:15:47.241Z,27.63
2024-01-20T12:18:14.235Z,24.43
2024-01-20T12:20:41.506Z,25.17
2024-01-20T12:23:08.250Z,23.37
2024-01-20T12:25:37.712Z,20.90
2024-01-20T12:28:04.821Z,23.17
2024-01-20T12:30:31.664Z,25.63
2024-01-20T12:32:58.603Z,26.00
2024-01-20T12:35:26.368Z,21.37
2024-01-20T12:37:53.241Z,23.33
2024-01-20T12:40:20.098Z,21.57
2024-01-20T12:42:47.118Z,21.67
2024-01-20T12:45:14.012Z,21.37
2024-01-20T12:47:43.980Z,22.40
2024-01-20T12:50:11.204Z,24.00
2024-01-20T12:52:37.963Z,21.37
2024-01-20T12:55:05.337Z,20.60
2024-01-20T12:57:32.254Z,17.00
2024-01-20T12:59:58.983Z,23.13
2024-01-20T13:02:26.821Z,20.00
2024-01-20T13:04:53.683Z,22.07
2024-01-20T13:07:23.332Z,20.43
2024-01-20T13:09:50.276Z,17.83
2024-01-20T13:12:17.084Z,22.03
2024-01-20T13:14:46.119Z,18.63
2024-01-20T13:17:12.888Z,20.27
2024-01-20T13:19:39.793Z,17.83
2024-01-20T13:22:06.624Z,18.63
2024-01-20T13:24:33.372Z,20.10
2024-01-20T13:27:03.069Z,21.03
2024-01-20T13:29:32.629Z,18.10
2024-01-20T13:31:59.480Z,16.33
2024-01-20T13:34:26.456Z,17.90
2024-01-20T13:36:53.452Z,19.63
2024-01-20T13:39:20.326Z,24.57
2024-01-20T13:41:47.117Z,21.17
2024-01-20T13:44:13.831Z,18.53
2024-01-20T13:46:40.566Z,20.27
2024-01-20T13:49:13.093Z,23.03
2024-01-20T13:51:40.418Z,17.90
2024-01-20T13:54:07.296Z,19.80
2024-01-20T13:56:34.028Z,19.83
2024-01-20T13:59:00.897Z,18.77
2024-01-20T14:01:27.701Z,19.30
2024-01-20T14:03:57.596Z,19.70
2024-01-20T14:06:25.843Z,20.37
2024-01-20T14:08:53.282Z,18.07
2024-01-20T14:11:20.009Z,21.43
2024-01-20T14:13:47.041Z,20.10
2024-01-20T14:16:13.880Z,17.03
2024-01-20T14:18:40.732Z,19.70
2024-01-20T14:21:07.589Z,18.43
2024-01-20T14:23:34.312Z,19.83
2024-01-20T14:26:01.690Z,19.53
2024-01-20T14:28:28.825Z,19.00
2024-01-20T14:30:55.565Z,17.17
2024-01-20T14:33:22.766Z,16.93
2024-01-20T14:35:49.572Z,14.93
2024-01-20T14:38:16.773Z,18.47
2024-01-20T14:40:43.662Z,20.23
2024-01-20T14:43:10.428Z,17.07
2024-01-20T14:45:37.461Z,15.90
2024-01-20T14:48:07.777Z,21.17
2024-01-20T14:50:34.782Z,17.57
2024-01-20T14:53:02.764Z,18.40
2024-01-20T14:55:31.792Z,17.43
2024-01-20T14:57:59.116Z,18.07
2024-01-20T15:00:26.174Z,18.00
2024-01-20T15:02:53.318Z,17.63
2024-01-20T15:05:20.077Z,19.90
2024-01-20T15:07:46.790Z,17.67
2024-01-20T15:10:13.496Z,18.33
2024-01-20T15:12:40.449Z,16.90
2024-01-20T15:15:07.607Z,17.03
2024-01-20T15:17:35.312Z,17.37
2024-01-20T15:20:02.149Z,16.90
2024-01-20T15:22:28.948Z,19.93
2024-01-20T15:24:55.771Z,17.20
2024-01-20T15:27:22.536Z,16.87
2024-01-20T15:29:49.367Z,18.27
2024-01-20T15:32:17.984Z,19.73
2024-01-20T15:34:44.776Z,18.33
2024-01-20T15:37:11.655Z,17.87
2024-01-20T15:39:38.415Z,21.13
2024-01-20T15:42:05.435Z,20.80
2024-01-20T15:44:32.161Z,20.23
2024-01-20T15:47:01.696Z,20.83
2024-01-20T15:49:28.449Z,18.83
2024-01-20T15:51:55.190Z,18.23
2024-01-20T15:54:22.032Z,27.50
2024-01-20T15:56:48.994Z,20.43
2024-01-20T15:59:15.689Z,20.87
2024-01-20T16:01:42.459Z,18.87
2024-01-20T16:04:09.439Z,23.70
2024-01-20T16:06:36.348Z,18.37
2024-01-20T16:09:05.948Z,15.77
2024-01-20T16:11:32.805Z,19.53
2024-01-20T16:13:59.919Z,18.60
2024-01-20T16:16:29.622Z,21.63
2024-01-20T16:18:56.682Z,19.93
2024-01-20T16:21:25.367Z,21.97
2024-01-20T16:23:53.171Z,19.97
2024-01-20T16:26:22.987Z,19.93
2024-01-20T16:28:50.306Z,20.23
2024-01-20T16:31:17.673Z,20.10
2024-01-20T16:33:48.585Z,19.57
2024-01-20T16:36:17.135Z,16.93
2024-01-20T16:38:46.966Z,18.73
2024-01-20T16:41:16.511Z,23.40
2024-01-20T16:43:44.217Z,20.13
2024-01-20T16:46:16.321Z,21.13
2024-01-20T16:48:43.603Z,19.43
2024-01-20T16:51:15.324Z,17.53
2024-01-20T16:53:49.111Z,19.20
2024-01-20T16:56:15.838Z,19.57
2024-01-20T16:58:42.525Z,18.67
2024-01-20T17:01:09.300Z,16.93
2024-01-20T17:03:36.217Z,17.10
2024-01-20T17:06:03.205Z,17.13
2024-01-20T17:08:32.927Z,17.63
2024-01-20T17:10:59.594Z,20.03
2024-01-20T17:13:29.192Z,20.17
2024-01-20T17:15:55.923Z,23.67
2024-01-20T17:18:23.159Z,18.57
2024-01-20T17:20:50.040Z,19.73
2024-01-20T17:23:16.727Z,17.67
2024-01-20T17:25:43.748Z,15.63
2024-01-20T17:28:18.049Z,20.93
2024-01-20T17:30:47.229Z,18.67
2024-01-20T17:33:14.207Z,18.17
2024-01-20T17:35:41.185Z,22.10
2024-01-20T17:38:07.906Z,18.23
2024-01-20T17:40:34.702Z,21.17
2024-01-20T17:43:01.406Z,20.00
2024-01-20T17:45:28.250Z,22.47
2024-01-20T17:47:55.087Z,21.43
2024-01-20T17:50:25.403Z,23.17
2024-01-20T17:52:54.913Z,17.27
2024-01-20T17:55:21.688Z,20.23
2024-01-20T17:57:51.102Z,17.80
2024-01-20T18:00:20.797Z,20.63
2024-01-20T18:02:48.143Z,18.53
2024-01-20T18:05:17.790Z,20.40
2024-01-20T18:07:50.441Z,20.73
2024-01-20T18:10:19.911Z,21.07
2024-01-20T18:12:46.991Z,21.87
2024-01-20T18:15:14.258Z,19.70
2024-01-20T18:17:41.142Z,25.90
2024-01-20T18:20:10.988Z,18.97
2024-01-20T18:22:37.845Z,18.57
2024-01-20T18:25:04.733Z,18.50
2024-01-20T18:27:31.553Z,21.30
2024-01-20T18:29:58.263Z,20.27
2024-01-20T18:32:25.166Z,16.83
2024-01-20T18:34:52.009Z,21.33
2024-01-20T18:37:18.791Z,19.90
2024-01-20T18:39:45.896Z,21.60
2024-01-20T18:42:12.817Z,18.80
2024-01-20T18:44:40.763Z,24.07
2024-01-20T18:47:10.785Z,18.37
2024-01-20T18:49:37.722Z,21.57
2024-01-20T18:52:05.260Z,23.37
2024-01-20T18:54:32.083Z,20.10
2024-01-20T18:56:58.822Z,20.43
2024-01-20T18:59:25.657Z,23.87
2024-01-20T19:01:52.472Z,22.13
2024-01-20T19:04:19.355Z,18.93
2024-01-20T19:06:46.545Z,17.70
2024-01-20T19:09:16.340Z,21.37
2024-01-20T19:11:43.597Z,19.50
2024-01-20T19:14:10.327Z,21.43
2024-01-20T19:16:37.004Z,21.57
2024-01-20T19:19:08.597Z,19.47
2024-01-20T19:21:37.250Z,20.33
2024-01-20T19:24:04.444Z,19.10
2024-01-20T19:26:31.201Z,21.23
2024-01-20T19:28:57.930Z,18.73
2024-01-20T19:31:24.621Z,20.60
2024-01-20T19:33:54.359Z,20.47
2024-01-20T19:36:21.415Z,25.63
2024-01-20T19:38:48.374Z,22.43
2024-01-20T19:41:16.123Z,18.97
2024-01-20T19:43:42.977Z,23.20
2024-01-20T19:46:09.754Z,18.23
2024-01-20T19:48:36.861Z,21.57
2024-01-20T19:51:04.839Z,18.90
2024-01-20T19:53:32.037Z,20.60
2024-01-20T19:55:58.734Z,17.27
2024-01-20T19:58:26.570Z,18.10
2024-01-20T20:00:53.498Z,17.97
2024-01-20T20:03:20.645Z,22.40
2024-01-20T20:05:47.766Z,22.33
2024-01-20T20:08:15.979Z,16.67
2024-01-20T20:10:48.269Z,19.60
2024-01-20T20:13:15.030Z,19.00
2024-01-20T20:15:41.885Z,17.67
2024-01-20T20:18:08.825Z,19.03
2024-01-20T20:20:36.672Z,18.07
2024-01-20T20:23:04.469Z,19.07
2024-01-20T20:25:31.377Z,17.30
2024-01-20T20:27:58.182Z,17.90
2024-01-20T20:30:27.366Z,18.23
2024-01-20T20:32:56.398Z,21.70
2024-01-20T20:35:23.269Z,17.77
2024-01-20T20:37:50.244Z,17.07
2024-01-20T20:40:17.560Z,18.73
2024-01-20T20:42:44.474Z,23.77
2024-01-20T20:45:12.042Z,19.53
2024-01-20T20:47:39.044Z,17.63
2024-01-20T20:50:06.713Z,19.07
2024-01-20T20:52:33.696Z,21.20
2024-01-20T20:55:00.464Z,17.87
2024-01-20T20:57:27.128Z,16.37
2024-01-20T20:59:54.648Z,19.27
2024-01-20T21:02:22.278Z,18.50
2024-01-20T21:04:50.250Z,19.47
2024-01-20T21:07:19.086Z,18.63
2024-01-20T21:09:46.872Z,19.40
2024-01-20T21:12:13.880Z,14.50
2024-01-20T21:14:40.844Z,19.13
2024-01-20T21:17:10.320Z,14.50
2024-01-20T21:19:37.258Z,17.27
2024-01-20T21:22:04.410Z,15.40
2024-01-20T21:24:32.556Z,19.43
2024-01-20T21:26:59.359Z,14.60
2024-01-20T21:29:26.211Z,17.67
2024-01-20T21:31:52.922Z,16.40
2024-01-20T21:34:19.988Z,17.53
2024-01-20T21:36:46.964Z,18.33
2024-01-20T21:39:16.882Z,14.40
2024-01-20T21:41:43.661Z,14.90
2024-01-20T21:44:10.438Z,14.70
2024-01-20T21:46:37.201Z,15.80
2024-01-20T21:49:05.181Z,14.40
2024-01-20T21:51:32.141Z,16.43
2024-01-20T21:53:58.990Z,18.57
2024-01-20T21:56:25.838Z,17.63
2024-01-20T21:58:52.483Z,17.47
2024-01-20T22:01:19.877Z,16.97
2024-01-20T22:03:49.502Z,19.07
2024-01-20T22:06:16.305Z,15.17
2024-01-20T22:08:43.083Z,16.57
2024-01-20T22:11:10.088Z,17.57
2024-01-20T22:13:37.098Z,15.60
2024-01-20T22:16:03.997Z,18.33
2024-01-20T22:18:30.884Z,14.43
2024-01-20T22:20:58.691Z,13.40
2024-01-20T22:23:25.693Z,13.93
2024-01-20T22:25:52.501Z,12.43
2024-01-20T22:28:21.797Z,15.73
2024-01-20T22:30:48.607Z,13.17
2024-01-20T22:33:15.436Z,13.73
2024-01-20T22:35:42.309Z,14.67
2024-01-20T22:38:09.807Z,12.20
2024-01-20T22:40:36.785Z,24.43
2024-01-20T22:43:03.817Z,14.70
2024-01-20T22:45:30.686Z,14.27
2024-01-20T22:47:57.577Z,16.97
2024-01-20T22:50:24.796Z,15.17
2024-01-20T22:52:51.544Z,18.50
2024-01-20T22:55:18.348Z,17.20
2024-01-20T22:57:45.265Z,13.80
2024-01-20T23:00:14.142Z,12.83
2024-01-20T23:02:44.345Z,13.50
2024-01-20T23:05:13.772Z,13.77
2024-01-20T23:07:40.676Z,11.43
2024-01-20T23:10:09.165Z,14.20
2024-01-20T23:12:36.636Z,13.30
2024-01-20T23:15:07.439Z,13.10
2024-01-20T23:17:34.229Z,11.57
2024-01-20T23:20:04.811Z,13.83
2024-01-20T23:22:32.424Z,11.83
2024-01-20T23:24:59.242Z,11.00
2024-01-20T23:27:26.073Z,13.70
2024-01-20T23:29:56.141Z,11.07
2024-01-20T23:32:23.448Z,11.30
2024-01-20T23:34:51.025Z,16.20
2024-01-20T23:37:19.227Z,13.93
2024-01-20T23:39:46.080Z,13.17
2024-01-20T23:42:14.686Z,12.23
2024-01-20T23:44:41.595Z,10.83
2024-01-20T23:47:08.417Z,11.70
2024-01-20T23:49:35.880Z,11.17
2024-01-20T23:52:08.236Z,13.50
2024-01-20T23:54:35.319Z,15.43
2024-01-20T23:57:02.703Z,13.17
2024-01-20T23:59:29.566Z,11.87
